• Join FlightAware (Why Join?)
  • Login
  • US Flag 
09:18AM EDT


 

Airport Tracker/Info


-or-


 

Live Flight TrackerFlight Track Log ✈ SKW6345 ✈ 14-Jun-2013 ✈ KLAX - KSAN

Flight Track Log - Related Links

Times and Time Zones

All times are in EDT time to prevent confusion due to time zone crossing. See the SKW6345 flight status page for this flight to view local times or setup timezone preferences in your user account.

Time Position Orientation Groundspeed Altitude Reporting Facility
EDT Latitude Longitude Course Direction KTS MPH feet Rate Location/Type
08:40PM 33.9167 -118.4500 139° Southeast 178 205 2,300  Level Southern California TRACON
08:41PM 33.8667 -118.4833 209° Southwest 185 213 4,100 1,620 Climbing Southern California TRACON
08:42PM 33.8167 -118.4833 180° South 187 215 5,500 1,500 Climbing Southern California TRACON
08:43PM 33.7667 -118.4833 180° South 185 213 7,200 1,500 Climbing Southern California TRACON
08:44PM 33.7333 -118.4333 129° Southeast 195 224 8,500 1,260 Climbing Southern California TRACON
08:44PM 33.7200 -118.4358 189° South 194 223 8,700 360 Climbing Los Angeles Center
08:45PM 33.6756 -118.1351 139° Southeast  Level Estimated
08:45PM 33.6764 -118.3864 137° Southeast 222 255 9,000  Level Los Angeles Center
08:46PM 33.6347 -118.3031 121° Southeast 242 278 9,000  Level Los Angeles Center
08:47PM 33.5961 -118.2369 125° Southeast 243 280 9,000  Level Los Angeles Center
08:48PM 33.5575 -118.1675 124° Southeast 248 285 9,000  Level Los Angeles Center
08:49PM 33.5200 -118.1006 124° Southeast 245 282 9,000  Level Los Angeles Center
08:50PM 33.4817 -118.0328 124° Southeast 246 283 9,000  Level Los Angeles Center
08:51PM 33.4356 -117.9506 124° Southeast 248 285 9,000  Level Los Angeles Center
08:52PM 33.3972 -117.8839 125° Southeast 246 283 9,000  Level Los Angeles Center
08:53PM 33.3586 -117.8172 125° Southeast 245 282 9,000  Level Los Angeles Center
08:54PM 33.3208 -117.7489 123° Southeast 246 283 9,000  Level Los Angeles Center
08:55PM 33.2828 -117.6814 124° Southeast 246 283 9,000  Level Los Angeles Center
08:56PM 33.2447 -117.6128 124° Southeast 248 285 9,000  Level Los Angeles Center
08:57PM 33.2167 -117.5667 126° Southeast 246 283 9,000  Level Southern California TRACON
08:58PM 33.1667 -117.5333 151° Southeast 244 281 9,000 -600 Level Southern California TRACON
08:59PM 33.1000 -117.4833 148° Southeast 257 296 7,800 -1,080 Descending Southern California TRACON
08:59PM 33.0678 -117.4558 144° Southeast 257 296 7,100 -480 Descending Los Angeles Center
09:00PM 33.0081 -117.4053 145° Southeast 263 303 7,000 -60 Descending Los Angeles Center
09:01PM 32.9561 -117.3547 141° Southeast 250 288 7,000  Level Los Angeles Center
09:02PM 32.9333 -117.3333 142° Southeast 243 280 7,000  Level Southern California TRACON
09:03PM 32.9000 -117.2667 121° Southeast 239 275 7,000  Level Southern California TRACON
09:04PM 32.8500 -117.2000 132° Southeast 222 255 7,000  Level Southern California TRACON
09:05PM 32.8167 -117.1500 128° Southeast 202 232 7,000  Level Southern California TRACON
09:06PM 32.8000 -117.1000 112° Southeast 200 230 7,000  Level Southern California TRACON
09:07PM 32.7833 -117.0333 107° East 199 229 7,000 -480 Level Southern California TRACON
09:08PM 32.7833 -116.9667 90° East 196 226 6,100 -540 Descending Southern California TRACON
09:09PM 32.7667 -116.9167 112° Southeast 192 221 6,000 -240 Descending Southern California TRACON
09:10PM 32.7467 -116.8394 107° East 195 224 5,600 -540 Descending Los Angeles Center
09:11PM 32.6939 -116.8475 187° South 194 223 4,900 -660 Descending Los Angeles Center
09:12PM 32.6667 -116.8833 228° Southwest 185 213 4,500 -480 Descending Southern California TRACON
09:13PM 32.6667 -116.9333 270° West 184 212 4,100 -600 Descending Southern California TRACON
09:14PM 32.6833 -117.0000 287° West 191 220 3,300 -900 Descending Southern California TRACON
09:16PM 32.7167 -117.1167 289° West 160 184 1,500 -960 Descending Southern California TRACON
09:16PM 32.7197 -117.1306 285° West 162 186 1,100 -780 Descending Los Angeles Center
09:17PM 32.7278 -117.1700 284° West 131 151 400 -480 Descending Los Angeles Center
09:18PM 32.7361 -117.2092 284° West 129 148 200 -240 Descending Los Angeles Center